Dniprodzerzhyns'k, Ukraine
Current Conditions -  °F | °C
As of 8:30 AM on Thursday 18 Dec 2014 (Local Time) from UKDD Reporting Station
Moderate Fog Moderate Fog  
Wind Chill: 37°   Ceiling: 200
Heat Index: 43°   Visibility: 0.4mi
Dew Point: 41°   Wind: 11mph
Humidity: 93%   Direction: 360°N
Pressure: 29.85"   Gusts: NA
Location:  48.5°N, 34.61°E
Report Text: UKDD 180530Z 36005MPS 0650 R08/1500V1800D FG VV002 06/05 Q1011 08220356 BECMG 0200 FG OVC001
Loading
Personal Weather Stations






























Interactive Weather Map New forecast layout! Learn more

10-Day Weather Forecast

Advertisements
Track Severe Weather on mobile